Time;durP1;ratioP1;P1;durP2;ratioP2;P2;SDS_P1;SDS_P2;PMS_P1;PMS_P2;Temp;Humidity;BMP_temperature;BMP_pressure;BME280_temperature;BME280_humidity;BME280_pressure;Samples;Min_cycle;Max_cycle;Signal;HPM_P1;HPM_P2
2023/12/05 00:00:18;;;;;;;1.43;1.43;;;;;1.50;94738.00;;;;5076345;28;20190;-63
2023/12/05 00:02:45;;;;;;;0.93;0.93;;;;;1.80;94741.00;;;;5058603;28;20690;-63
2023/12/05 00:05:13;;;;;;;1.67;1.57;;;;;1.70;94733.00;;;;5076351;28;20228;-63
2023/12/05 00:07:42;;;;;;;1.13;1.13;;;;;1.60;94726.00;;;;5077231;28;20212;-63
2023/12/05 00:10:11;;;;;;;1.67;1.57;;;;;1.70;94741.00;;;;5077422;28;20197;-63
2023/12/05 00:12:39;;;;;;;1.50;1.40;;;;;1.50;94734.00;;;;5077461;28;20213;-63
2023/12/05 00:15:08;;;;;;;1.93;1.47;;;;;1.60;94740.00;;;;5076990;28;20248;-63
2023/12/05 00:17:35;;;;;;;1.10;1.10;;;;;1.70;94735.00;;;;5076508;28;20193;-63
2023/12/05 00:20:03;;;;;;;2.03;1.80;;;;;1.70;94728.00;;;;5077007;28;20676;-63
2023/12/05 00:22:31;;;;;;;1.73;1.60;;;;;1.60;94734.00;;;;5076556;28;20271;-63
2023/12/05 00:25:02;;;;;;;1.13;1.13;;;;;1.70;94735.00;;;;5076581;28;20190;-63
2023/12/05 00:27:31;;;;;;;2.03;1.93;;;;;1.70;94729.00;;;;5076972;28;20301;-63
2023/12/05 00:29:59;;;;;;;2.33;2.13;;;;;1.70;94728.00;;;;5076963;28;20194;-63
2023/12/05 00:32:26;;;;;;;2.73;2.53;;;;;1.70;94737.00;;;;5076415;28;20591;-63
2023/12/05 00:34:54;;;;;;;1.50;1.40;;;;;1.60;94737.00;;;;5075954;28;20203;-63
2023/12/05 00:37:24;;;;;;;1.00;1.00;;;;;1.60;94729.00;;;;5075887;28;20193;-63
2023/12/05 00:39:51;;;;;;;1.60;1.53;;;;;1.60;94714.00;;;;5075875;28;20198;-63
2023/12/05 00:42:19;;;;;;;1.77;1.67;;;;;1.60;94736.00;;;;5075123;28;20716;-63
2023/12/05 00:44:47;;;;;;;1.57;1.50;;;;;1.50;94729.00;;;;5075198;28;20198;-63
2023/12/05 00:47:15;;;;;;;1.27;1.27;;;;;1.50;94733.00;;;;5076174;28;20225;-63
2023/12/05 00:49:42;;;;;;;1.27;1.27;;;;;1.60;94731.00;;;;5076061;28;20193;-64
2023/12/05 00:52:09;;;;;;;1.83;1.70;;;;;1.60;94726.00;;;;5076333;28;20693;-63
2023/12/05 00:54:37;;;;;;;2.03;1.87;;;;;1.60;94733.00;;;;5076046;28;20194;-63
2023/12/05 00:57:05;;;;;;;2.03;1.90;;;;;1.50;94729.00;;;;5076406;28;20193;-63
2023/12/05 00:59:32;;;;;;;1.77;1.67;;;;;1.60;94743.00;;;;5076192;28;20194;-63
2023/12/05 01:02:01;;;;;;;1.73;1.63;;;;;1.50;94742.00;;;;5075967;28;20272;-63
2023/12/05 01:04:28;;;;;;;1.43;1.37;;;;;1.50;94740.00;;;;5073576;22;20242;-66
2023/12/05 01:06:55;;;;;;;1.90;1.80;;;;;1.40;94736.00;;;;5054267;28;20211;-66
2023/12/05 01:09:23;;;;;;;2.10;1.93;;;;;1.50;94746.00;;;;5054300;28;20194;-66
2023/12/05 01:11:51;;;;;;;1.80;1.70;;;;;1.50;94746.00;;;;5053563;28;20210;-66
2023/12/05 01:14:18;;;;;;;2.00;1.83;;;;;1.50;94745.00;;;;5054488;28;20203;-66
2023/12/05 01:16:46;;;;;;;2.10;2.00;;;;;1.60;94754.00;;;;5054120;28;20195;-66
2023/12/05 01:19:15;;;;;;;0.87;0.87;;;;;1.50;94746.00;;;;5054017;28;20195;-66
2023/12/05 01:21:42;;;;;;;2.60;1.53;;;;;1.40;94747.00;;;;5053924;28;20244;-66
2023/12/05 01:24:10;;;;;;;2.10;2.00;;;;;1.40;94749.00;;;;5054321;28;20205;-66
2023/12/05 01:26:37;;;;;;;1.87;1.77;;;;;1.40;94743.00;;;;5054278;28;20226;-66
2023/12/05 01:29:07;;;;;;;1.13;1.13;;;;;1.50;94759.00;;;;5053920;28;20646;-65
2023/12/05 01:31:37;;;;;;;1.37;1.30;;;;;1.40;94751.00;;;;5053922;28;20720;-65
2023/12/05 01:34:05;;;;;;;2.00;1.90;;;;;1.50;94747.00;;;;5053904;28;20199;-65
2023/12/05 01:36:33;;;;;;;1.40;1.03;;;;;1.50;94750.00;;;;5052349;28;20610;-65
2023/12/05 01:39:01;;;;;;;1.77;1.67;;;;;1.20;94753.00;;;;5053999;28;20202;-65
2023/12/05 01:41:28;;;;;;;3.20;2.07;;;;;1.40;94746.00;;;;5053627;28;20582;-65
2023/12/05 01:43:55;;;;;;;1.33;1.23;;;;;1.20;94747.00;;;;5054265;28;20206;-65
2023/12/05 01:46:24;;;;;;;1.83;1.60;;;;;1.20;94736.00;;;;5053450;28;20219;-65
2023/12/05 01:48:54;;;;;;;1.53;1.43;;;;;1.40;94752.00;;;;5053718;28;20219;-65
2023/12/05 01:51:21;;;;;;;2.03;1.87;;;;;1.30;94743.00;;;;5053828;28;20241;-65
2023/12/05 01:53:51;;;;;;;1.33;1.30;;;;;1.30;94752.00;;;;5053491;28;20279;-66
2023/12/05 01:56:19;;;;;;;1.60;1.50;;;;;1.20;94754.00;;;;5053516;28;20200;-66
2023/12/05 01:58:47;;;;;;;1.63;1.53;;;;;1.40;94759.00;;;;5053483;28;20191;-66
2023/12/05 02:01:16;;;;;;;4.10;1.67;;;;;1.50;94758.00;;;;5053549;28;20202;-66
2023/12/05 02:03:46;;;;;;;3.40;1.40;;;;;1.40;94749.00;;;;5053270;28;20214;-66
2023/12/05 02:06:18;;;;;;;1.40;1.40;;;;;1.40;94749.00;;;;5053258;28;20192;-66
2023/12/05 02:08:46;;;;;;;2.20;2.10;;;;;1.40;94738.00;;;;5053846;28;20187;-66
2023/12/05 02:11:15;;;;;;;1.47;1.40;;;;;1.40;94751.00;;;;5051966;28;20194;-66
2023/12/05 02:13:43;;;;;;;2.23;2.07;;;;;1.40;94745.00;;;;5053297;28;20221;-66
2023/12/05 02:16:20;;;;;;;2.97;2.03;;;;;1.30;94754.00;;;;5053237;28;20210;-65
2023/12/05 02:18:55;;;;;;;6.27;1.67;;;;;1.20;94750.00;;;;5053342;28;20183;-65
2023/12/05 02:21:30;;;;;;;2.03;1.93;;;;;1.20;94750.00;;;;5053447;28;20186;-66
2023/12/05 02:24:25;;;;;;;1.97;1.87;;;;;1.10;94746.00;;;;5054593;28;20199;-65
2023/12/05 02:27:10;;;;;;;3.27;2.33;;;;;1.20;94752.00;;;;5057655;28;20285;-65
2023/12/05 02:29:48;;;;;;;2.03;1.93;;;;;1.30;94756.00;;;;5057509;28;20191;-65
2023/12/05 02:32:15;;;;;;;2.00;1.90;;;;;1.30;94751.00;;;;5057442;28;20214;-66
2023/12/05 02:34:43;;;;;;;3.83;1.97;;;;;1.30;94753.00;;;;5057168;28;20194;-65
2023/12/05 02:37:24;;;;;;;2.60;2.40;;;;;1.30;94764.00;;;;5057308;28;20197;-65
2023/12/05 02:40:11;;;;;;;6.77;3.53;;;;;1.20;94763.00;;;;5057462;28;20186;-70
2023/12/05 02:42:41;;;;;;;2.70;2.50;;;;;1.30;94770.00;;;;5057070;28;20218;-66
2023/12/05 02:45:17;;;;;;;2.77;2.43;;;;;1.40;94764.00;;;;5056981;28;20197;-66
2023/12/05 02:47:49;;;;;;;2.00;1.90;;;;;1.30;94767.00;;;;5056990;28;20206;-66
2023/12/05 02:50:17;;;;;;;4.93;2.03;;;;;1.40;94768.00;;;;5057048;28;20187;-65
2023/12/05 02:52:45;;;;;;;2.00;1.80;;;;;1.40;94764.00;;;;5057048;28;20214;-66
2023/12/05 02:55:12;;;;;;;1.20;1.20;;;;;1.50;94775.00;;;;5057017;28;20554;-66
2023/12/05 02:57:40;;;;;;;1.77;1.67;;;;;1.50;94773.00;;;;5056787;28;20186;-66
2023/12/05 03:00:11;;;;;;;4.23;3.23;;;;;1.70;94769.00;;;;5056794;28;20190;-65
2023/12/05 03:02:39;;;;;;;1.80;1.70;;;;;1.70;94761.00;;;;5057015;28;20302;-64
2023/12/05 03:05:07;;;;;;;1.70;1.60;;;;;1.80;94773.00;;;;5056880;28;20202;-65
2023/12/05 03:07:36;;;;;;;2.13;1.93;;;;;1.80;94773.00;;;;5056642;28;20210;-66
2023/12/05 03:10:05;;;;;;;3.03;2.83;;;;;1.90;94770.00;;;;5056373;28;20221;-65
2023/12/05 03:12:33;;;;;;;4.40;1.90;;;;;1.80;94777.00;;;;5056464;28;20214;-66
2023/12/05 03:15:01;;;;;;;2.23;2.03;;;;;2.00;94763.00;;;;5056292;28;20201;-66
2023/12/05 03:17:29;;;;;;;2.40;2.30;;;;;2.00;94760.00;;;;5056572;28;20186;-65
2023/12/05 03:19:57;;;;;;;1.23;1.23;;;;;2.10;94777.00;;;;5056878;28;20199;-65
2023/12/05 03:22:24;;;;;;;2.90;1.90;;;;;2.20;94772.00;;;;5056745;28;20216;-66
2023/12/05 03:24:52;;;;;;;2.27;2.07;;;;;2.10;94772.00;;;;5056079;28;20721;-65
2023/12/05 03:27:22;;;;;;;1.80;1.50;;;;;2.10;94763.00;;;;5056234;28;20675;-66
2023/12/05 03:29:49;;;;;;;1.47;1.37;;;;;2.30;94760.00;;;;5056216;28;20249;-67
2023/12/05 03:32:16;;;;;;;1.47;1.37;;;;;2.30;94762.00;;;;5054763;28;20227;-67
2023/12/05 03:34:47;;;;;;;1.43;1.33;;;;;2.30;94768.00;;;;5055686;28;20590;-67
2023/12/05 03:37:14;;;;;;;1.87;1.77;;;;;2.30;94760.00;;;;5055914;28;20195;-66
2023/12/05 03:39:42;;;;;;;1.47;1.47;;;;;2.40;94775.00;;;;5056024;28;20202;-66
2023/12/05 03:42:09;;;;;;;2.77;1.53;;;;;2.40;94765.00;;;;5055944;28;20219;-65
2023/12/05 03:44:40;;;;;;;1.43;1.33;;;;;2.40;94767.00;;;;5055970;28;20191;-66
2023/12/05 03:47:07;;;;;;;1.90;1.23;;;;;2.30;94774.00;;;;5054796;28;20208;-67
2023/12/05 03:49:35;;;;;;;1.50;1.40;;;;;2.40;94772.00;;;;5056229;28;20195;-66
2023/12/05 03:52:04;;;;;;;2.13;1.93;;;;;2.50;94776.00;;;;5054651;28;20227;-64
2023/12/05 03:54:32;;;;;;;1.50;1.43;;;;;2.40;94773.00;;;;5054529;28;20202;-65
2023/12/05 03:56:59;;;;;;;2.00;1.73;;;;;2.20;94787.00;;;;5055896;28;20200;-66
2023/12/05 03:59:27;;;;;;;4.03;1.93;;;;;2.20;94787.00;;;;5055715;28;20227;-66
2023/12/05 04:01:54;;;;;;;1.67;1.57;;;;;2.30;94792.00;;;;5055629;28;20581;-66
2023/12/05 04:04:21;;;;;;;2.10;1.97;;;;;2.20;94786.00;;;;5055351;28;20215;-66
2023/12/05 04:06:49;;;;;;;1.97;1.80;;;;;2.20;94789.00;;;;5055294;28;20226;-66
2023/12/05 04:09:18;;;;;;;2.43;2.23;;;;;2.20;94780.00;;;;5055437;28;20195;-66
2023/12/05 04:11:45;;;;;;;0.83;0.83;;;;;2.20;94775.00;;;;5055360;28;20208;-66
2023/12/05 04:14:12;;;;;;;1.60;1.50;;;;;2.30;94785.00;;;;5055266;28;20571;-65
2023/12/05 04:16:43;;;;;;;1.00;1.00;;;;;2.40;94787.00;;;;5055619;28;20203;-65
2023/12/05 04:19:10;;;;;;;1.63;1.53;;;;;2.40;94779.00;;;;5055302;28;20184;-65
2023/12/05 04:21:37;;;;;;;2.40;2.20;;;;;2.40;94790.00;;;;5055149;28;20229;-65
2023/12/05 04:24:06;;;;;;;1.90;1.57;;;;;2.40;94800.00;;;;5055218;28;20219;-65
2023/12/05 04:26:35;;;;;;;1.13;1.13;;;;;2.50;94792.00;;;;5055256;28;20593;-65
2023/12/05 04:29:02;;;;;;;1.00;1.00;;;;;2.40;94795.00;;;;5054955;28;20229;-66
2023/12/05 04:31:29;;;;;;;1.20;1.20;;;;;2.40;94796.00;;;;5053752;28;20261;-65
2023/12/05 04:33:57;;;;;;;1.77;1.63;;;;;2.30;94795.00;;;;5055346;28;20196;-65
2023/12/05 04:36:27;;;;;;;1.43;1.43;;;;;2.30;94804.00;;;;5055079;28;20188;-65
2023/12/05 04:38:55;;;;;;;0.83;0.83;;;;;2.40;94794.00;;;;5055551;28;20242;-65
2023/12/05 04:41:22;;;;;;;1.20;1.20;;;;;2.50;94796.00;;;;5054939;28;20670;-65
2023/12/05 04:43:51;;;;;;;1.10;1.10;;;;;2.50;94799.00;;;;5054884;28;20221;-65
2023/12/05 04:46:18;;;;;;;2.80;2.53;;;;;2.50;94795.00;;;;5054393;28;20544;-65
2023/12/05 04:48:46;;;;;;;1.53;1.43;;;;;2.50;94790.00;;;;5055094;28;20303;-65
2023/12/05 04:51:18;;;;;;;1.50;1.47;;;;;2.50;94784.00;;;;5054546;28;20195;-65
2023/12/05 04:53:47;;;;;;;2.93;2.43;;;;;2.40;94784.00;;;;5054973;28;20191;-65
2023/12/05 04:56:15;;;;;;;1.00;1.00;;;;;2.50;94784.00;;;;5054371;28;20262;-65
2023/12/05 04:58:42;;;;;;;1.00;1.00;;;;;2.50;94784.00;;;;5054709;28;20214;-65
2023/12/05 05:01:11;;;;;;;1.57;1.47;;;;;2.60;94784.00;;;;5054717;28;20195;-66
2023/12/05 05:03:38;;;;;;;1.70;1.40;;;;;2.60;94784.00;;;;5054505;28;20199;-66
2023/12/05 05:06:06;;;;;;;1.40;1.30;;;;;2.60;94784.00;;;;5054470;28;20191;-66
2023/12/05 05:08:34;;;;;;;1.27;1.27;;;;;2.50;94794.00;;;;5054278;28;20219;-66
2023/12/05 05:11:01;;;;;;;1.47;1.37;;;;;2.70;94812.00;;;;5054914;28;20196;-66
2023/12/05 05:13:29;;;;;;;1.83;1.73;;;;;2.60;94799.00;;;;5054444;28;20218;-66
2023/12/05 05:15:56;;;;;;;1.13;1.13;;;;;2.50;94810.00;;;;5054507;28;20199;-65
2023/12/05 05:18:25;;;;;;;1.30;1.27;;;;;2.60;94814.00;;;;5054600;28;20198;-66
2023/12/05 05:20:52;;;;;;;1.43;1.33;;;;;2.60;94796.00;;;;5054559;28;20192;-66
2023/12/05 05:23:20;;;;;;;1.83;1.73;;;;;2.70;94799.00;;;;5054281;28;20207;-65
2023/12/05 05:25:47;;;;;;;1.10;1.10;;;;;2.70;94805.00;;;;5054321;28;20188;-65
2023/12/05 05:28:14;;;;;;;1.40;1.40;;;;;2.70;94806.00;;;;5054159;28;20679;-65
2023/12/05 05:30:42;;;;;;;1.50;1.10;;;;;2.60;94804.00;;;;5054537;28;20192;-66
2023/12/05 05:33:09;;;;;;;1.30;1.20;;;;;2.60;94801.00;;;;5054259;28;20211;-65
2023/12/05 05:35:38;;;;;;;0.80;0.80;;;;;2.70;94809.00;;;;5053994;28;20195;-66
2023/12/05 05:38:05;;;;;;;0.90;0.90;;;;;2.70;94809.00;;;;5053938;28;20198;-66
2023/12/05 05:40:33;;;;;;;1.10;1.10;;;;;2.70;94815.00;;;;5053981;28;20195;-66
2023/12/05 05:43:00;;;;;;;0.80;0.80;;;;;2.90;94807.00;;;;5053658;28;20242;-65
2023/12/05 05:45:28;;;;;;;1.10;1.03;;;;;2.90;94804.00;;;;5054222;28;20215;-66
2023/12/05 05:47:55;;;;;;;1.03;1.03;;;;;2.90;94803.00;;;;5053744;28;20246;-66
2023/12/05 05:50:23;;;;;;;0.80;0.80;;;;;3.00;94796.00;;;;5053553;28;20227;-65
2023/12/05 05:52:51;;;;;;;0.83;0.83;;;;;3.10;94797.00;;;;5053435;28;20211;-66
2023/12/05 05:55:19;;;;;;;1.23;1.20;;;;;3.10;94794.00;;;;5053548;28;20690;-66
2023/12/05 05:57:46;;;;;;;1.47;1.37;;;;;3.00;94801.00;;;;5053491;28;20195;-66
2023/12/05 06:00:15;;;;;;;1.37;1.23;;;;;3.10;94792.00;;;;5053467;28;20188;-65
2023/12/05 06:02:42;;;;;;;1.77;1.67;;;;;3.00;94794.00;;;;5053301;28;20212;-66
2023/12/05 06:05:10;;;;;;;0.70;0.70;;;;;3.10;94795.00;;;;5054442;28;20190;-65
2023/12/05 06:07:38;;;;;;;0.80;0.80;;;;;3.00;94810.00;;;;5053207;28;20196;-66
2023/12/05 06:10:07;;;;;;;0.90;0.90;;;;;3.10;94805.00;;;;5053311;28;20196;-66
2023/12/05 06:12:35;;;;;;;0.83;0.83;;;;;3.10;94810.00;;;;5052985;28;20211;-65
2023/12/05 06:15:02;;;;;;;1.00;1.00;;;;;3.10;94817.00;;;;5053370;28;20192;-65
2023/12/05 06:17:30;;;;;;;1.53;1.43;;;;;3.20;94807.00;;;;5053391;28;20196;-65
2023/12/05 06:19:57;;;;;;;0.97;0.97;;;;;3.20;94799.00;;;;5052974;28;20203;-65
2023/12/05 06:22:24;;;;;;;4.83;1.33;;;;;3.00;94800.00;;;;5053456;28;20223;-65
2023/12/05 06:24:52;;;;;;;0.93;0.93;;;;;3.20;94800.00;;;;5053106;28;20246;-66
2023/12/05 06:27:22;;;;;;;0.90;0.90;;;;;3.10;94801.00;;;;5053391;28;20198;-65
2023/12/05 06:29:49;;;;;;;0.83;0.83;;;;;3.10;94803.00;;;;5052956;28;20216;-64
2023/12/05 06:32:17;;;;;;;1.03;1.03;;;;;3.10;94811.00;;;;5051598;28;20215;-65
2023/12/05 06:34:44;;;;;;;0.83;0.83;;;;;3.10;94818.00;;;;5052927;28;20198;-65
2023/12/05 06:37:11;;;;;;;0.90;0.90;;;;;2.90;94814.00;;;;5053168;28;20200;-65
2023/12/05 06:39:39;;;;;;;0.70;0.70;;;;;3.00;94809.00;;;;5053283;28;20561;-65
2023/12/05 06:42:06;;;;;;;1.17;1.17;;;;;3.00;94813.00;;;;5053103;28;20218;-65
2023/12/05 06:44:35;;;;;;;0.60;0.60;;;;;3.10;94818.00;;;;5053175;28;20556;-65
2023/12/05 06:47:02;;;;;;;0.73;0.73;;;;;3.00;94811.00;;;;5053052;28;20575;-65
2023/12/05 06:49:30;;;;;;;0.93;0.93;;;;;3.20;94828.00;;;;5052735;28;20702;-65
2023/12/05 06:52:00;;;;;;;1.00;1.00;;;;;3.20;94824.00;;;;5052930;28;20216;-65
2023/12/05 06:54:27;;;;;;;0.70;0.70;;;;;3.20;94821.00;;;;5053304;28;20628;-65
2023/12/05 06:56:55;;;;;;;1.23;1.23;;;;;3.30;94825.00;;;;5051710;28;20199;-68
2023/12/05 06:59:22;;;;;;;0.97;0.97;;;;;3.20;94822.00;;;;5052771;28;20189;-65
2023/12/05 07:01:51;;;;;;;0.63;0.63;;;;;3.30;94835.00;;;;5052750;28;20212;-65
2023/12/05 07:04:21;;;;;;;3.97;1.60;;;;;3.20;94829.00;;;;5095021;22;20250;-63
2023/12/05 07:06:49;;;;;;;0.60;0.60;;;;;3.20;94839.00;;;;5094329;28;20195;-64
2023/12/05 07:09:16;;;;;;;0.80;0.80;;;;;3.20;94834.00;;;;5094287;28;20253;-64
2023/12/05 07:11:44;;;;;;;0.90;0.90;;;;;3.20;94837.00;;;;5098118;28;20215;-63
2023/12/05 07:14:13;;;;;;;0.70;0.70;;;;;3.10;94847.00;;;;5096763;28;20206;-62
2023/12/05 07:16:40;;;;;;;0.93;0.93;;;;;3.10;94855.00;;;;5097883;28;20190;-62
2023/12/05 07:19:09;;;;;;;0.80;0.80;;;;;3.10;94849.00;;;;5098067;28;20195;-62
2023/12/05 07:21:36;;;;;;;1.90;1.13;;;;;3.10;94845.00;;;;5097833;28;20211;-64
2023/12/05 07:24:04;;;;;;;0.67;0.67;;;;;3.10;94850.00;;;;5097725;28;20194;-63
2023/12/05 07:26:32;;;;;;;0.77;0.77;;;;;3.00;94856.00;;;;5097544;28;20285;-64
2023/12/05 07:28:59;;;;;;;1.60;1.03;;;;;3.00;94857.00;;;;5097306;28;20601;-63
2023/12/05 07:31:26;;;;;;;0.60;0.60;;;;;3.00;94853.00;;;;5097774;28;20198;-63
2023/12/05 07:33:57;;;;;;;0.97;0.97;;;;;3.20;94870.00;;;;5097212;28;20193;-63
2023/12/05 07:36:25;;;;;;;1.00;1.00;;;;;3.00;94882.00;;;;5097270;28;20206;-61
2023/12/05 07:38:53;;;;;;;0.83;0.83;;;;;3.00;94870.00;;;;5097618;28;20186;-62
2023/12/05 07:41:22;;;;;;;0.93;0.93;;;;;3.00;94871.00;;;;5097392;28;20196;-62
2023/12/05 07:43:50;;;;;;;0.67;0.67;;;;;3.20;94874.00;;;;5096915;28;20233;-62
2023/12/05 07:46:18;;;;;;;0.57;0.57;;;;;3.20;94879.00;;;;5097254;28;20669;-64
2023/12/05 07:48:45;;;;;;;0.77;0.77;;;;;3.30;94880.00;;;;5097535;28;20210;-64
2023/12/05 07:51:16;;;;;;;0.90;0.90;;;;;3.40;94881.00;;;;5096614;28;20198;-64
2023/12/05 07:53:45;;;;;;;1.53;1.40;;;;;3.40;94876.00;;;;5096714;28;20206;-64
2023/12/05 07:56:13;;;;;;;1.00;1.00;;;;;3.60;94883.00;;;;5094659;28;20662;-66
2023/12/05 07:58:40;;;;;;;1.23;1.23;;;;;3.60;94881.00;;;;5097370;28;20205;-67
2023/12/05 08:01:08;;;;;;;0.83;0.83;;;;;3.60;94890.00;;;;5099713;28;20203;-66
2023/12/05 08:03:36;;;;;;;0.70;0.70;;;;;3.60;94888.00;;;;5099024;28;20194;-67
2023/12/05 08:06:04;;;;;;;0.80;0.80;;;;;3.60;94881.00;;;;5096961;28;20201;-63
2023/12/05 08:08:33;;;;;;;0.57;0.57;;;;;3.50;94886.00;;;;5096453;28;20305;-62
2023/12/05 08:11:02;;;;;;;2.27;0.93;;;;;3.60;94882.00;;;;5096068;28;20201;-64
2023/12/05 08:13:30;;;;;;;0.70;0.70;;;;;3.50;94886.00;;;;5096846;28;20210;-63
2023/12/05 08:15:57;;;;;;;3.30;0.90;;;;;3.70;94893.00;;;;5096812;28;20535;-64
2023/12/05 08:18:24;;;;;;;0.97;0.97;;;;;3.80;94880.00;;;;5096568;28;20198;-64
2023/12/05 08:20:52;;;;;;;0.90;0.90;;;;;4.10;94889.00;;;;5096160;28;20191;-64
2023/12/05 08:23:20;;;;;;;0.60;0.60;;;;;3.90;94897.00;;;;5096466;28;20215;-62
2023/12/05 08:25:47;;;;;;;0.60;0.60;;;;;3.80;94891.00;;;;5096418;28;20632;-63
2023/12/05 08:28:16;;;;;;;1.00;1.00;;;;;4.00;94886.00;;;;5096423;28;20187;-63
2023/12/05 08:30:43;;;;;;;1.20;1.10;;;;;4.10;94895.00;;;;5096562;28;20191;-63
2023/12/05 08:33:11;;;;;;;0.70;0.70;;;;;4.10;94890.00;;;;5096352;28;20211;-62
2023/12/05 08:35:38;;;;;;;0.87;0.87;;;;;4.20;94903.00;;;;5096216;28;20283;-62
2023/12/05 08:38:06;;;;;;;0.97;0.97;;;;;4.20;94906.00;;;;5096115;28;20195;-62
2023/12/05 08:40:33;;;;;;;0.90;0.90;;;;;4.30;94899.00;;;;5096041;28;20190;-62
2023/12/05 08:43:03;;;;;;;0.60;0.60;;;;;4.30;94901.00;;;;5096553;28;20214;-63
2023/12/05 08:45:32;;;;;;;0.80;0.80;;;;;4.30;94913.00;;;;5096662;28;20650;-63
2023/12/05 08:47:59;;;;;;;0.60;0.60;;;;;4.60;94914.00;;;;5096376;28;20202;-62
2023/12/05 08:50:27;;;;;;;0.60;0.60;;;;;4.50;94906.00;;;;5096085;28;20573;-62
2023/12/05 08:52:54;;;;;;;0.70;0.70;;;;;4.70;94894.00;;;;5095999;28;20202;-62
2023/12/05 08:55:23;;;;;;;0.80;0.80;;;;;4.80;94905.00;;;;5096624;28;20244;-62
2023/12/05 08:57:51;;;;;;;0.70;0.70;;;;;4.70;94897.00;;;;5096338;28;20191;-62
2023/12/05 09:00:19;;;;;;;0.60;0.60;;;;;4.60;94900.00;;;;5095944;28;20190;-63
2023/12/05 09:02:47;;;;;;;0.60;0.60;;;;;4.30;94906.00;;;;5095688;28;20206;-63
2023/12/05 09:05:15;;;;;;;0.93;0.93;;;;;4.50;94913.00;;;;5095297;28;20535;-63
2023/12/05 09:07:42;;;;;;;0.87;0.87;;;;;4.70;94908.00;;;;5095379;28;20191;-63
2023/12/05 09:10:10;;;;;;;3.83;1.53;;;;;4.70;94918.00;;;;5095835;28;20206;-63
2023/12/05 09:12:38;;;;;;;0.70;0.70;;;;;4.70;94918.00;;;;5095852;28;20219;-62
2023/12/05 09:15:05;;;;;;;1.00;1.00;;;;;4.60;94912.00;;;;5094321;28;20201;-62
2023/12/05 09:17:33;;;;;;;1.40;1.40;;;;;4.80;94919.00;;;;5095659;28;20187;-62
2023/12/05 09:20:04;;;;;;;7.90;0.80;;;;;4.70;94909.00;;;;5095556;28;20592;-62
2023/12/05 09:22:31;;;;;;;0.77;0.77;;;;;4.60;94917.00;;;;5095533;28;20271;-62
2023/12/05 09:24:58;;;;;;;0.60;0.60;;;;;4.90;94925.00;;;;5095162;28;20214;-63
2023/12/05 09:27:26;;;;;;;0.60;0.60;;;;;5.10;94928.00;;;;5095504;28;20195;-62
2023/12/05 09:29:53;;;;;;;1.37;1.37;;;;;5.00;94930.00;;;;5095552;28;20212;-62
2023/12/05 09:32:21;;;;;;;0.60;0.60;;;;;4.90;94930.00;;;;5095037;28;20207;-62
2023/12/05 09:34:48;;;;;;;0.70;0.70;;;;;4.90;94926.00;;;;5094304;28;20261;-62
2023/12/05 09:37:17;;;;;;;0.70;0.70;;;;;5.00;94926.00;;;;5094869;28;20554;-62
2023/12/05 09:39:44;;;;;;;0.60;0.60;;;;;5.00;94927.00;;;;5095290;28;20222;-62
2023/12/05 09:42:14;;;;;;;0.80;0.80;;;;;5.00;94934.00;;;;5094548;28;20266;-62
2023/12/05 09:44:46;;;;;;;0.97;0.97;;;;;4.90;94935.00;;;;5094771;28;20676;-63
2023/12/05 09:47:19;;;;;;;0.60;0.60;;;;;4.90;94934.00;;;;5095877;28;20177;-63
2023/12/05 09:49:47;;;;;;;1.07;1.07;;;;;4.90;94929.00;;;;5096476;28;20203;-63
2023/12/05 09:52:16;;;;;;;0.87;0.87;;;;;4.70;94939.00;;;;5095723;28;20278;-62
2023/12/05 09:54:46;;;;;;;0.80;0.80;;;;;4.70;94929.00;;;;5096422;28;20202;-63
2023/12/05 09:57:14;;;;;;;0.80;0.80;;;;;4.80;94931.00;;;;5094713;28;20692;-62
2023/12/05 09:59:42;;;;;;;0.60;0.60;;;;;4.80;94932.00;;;;5097387;28;20195;-63
2023/12/05 10:02:11;;;;;;;0.60;0.60;;;;;4.90;94933.00;;;;5096307;28;20239;-63
2023/12/05 10:04:43;;;;;;;0.67;0.67;;;;;4.90;94926.00;;;;5095406;28;20221;-63
2023/12/05 10:07:12;;;;;;;0.93;0.93;;;;;4.70;94934.00;;;;5096004;28;20254;-63
2023/12/05 10:09:42;;;;;;;0.60;0.60;;;;;4.70;94928.00;;;;5095002;28;20241;-62
2023/12/05 10:12:11;;;;;;;0.60;0.60;;;;;4.80;94920.00;;;;5095058;28;20215;-62
2023/12/05 10:14:40;;;;;;;0.80;0.80;;;;;5.10;94921.00;;;;5094866;28;20693;-62
2023/12/05 10:17:08;;;;;;;0.60;0.60;;;;;4.90;94922.00;;;;5094790;28;20202;-62
2023/12/05 10:19:37;;;;;;;4.33;1.00;;;;;4.80;94923.00;;;;5095383;28;20194;-62
2023/12/05 10:22:05;;;;;;;0.70;0.70;;;;;5.10;94913.00;;;;5094519;28;20287;-62
2023/12/05 10:24:45;;;;;;;0.90;0.90;;;;;5.20;94922.00;;;;5094749;28;20193;-64
2023/12/05 10:27:16;;;;;;;1.03;1.03;;;;;5.10;94920.00;;;;5094676;28;20514;-62
2023/12/05 10:29:44;;;;;;;0.60;0.60;;;;;4.90;94919.00;;;;5095226;28;20678;-62
2023/12/05 10:32:13;;;;;;;0.70;0.70;;;;;4.90;94921.00;;;;5094952;28;20219;-63
2023/12/05 10:34:48;;;;;;;0.67;0.67;;;;;4.80;94906.00;;;;5094804;28;20558;-62
2023/12/05 10:37:22;;;;;;;3.60;0.80;;;;;5.00;94915.00;;;;5095379;28;20199;-63
2023/12/05 10:39:51;;;;;;;0.90;0.90;;;;;4.90;94903.00;;;;5095146;28;20186;-63
2023/12/05 10:42:19;;;;;;;0.80;0.80;;;;;5.00;94911.00;;;;5094640;28;20214;-62
2023/12/05 10:44:47;;;;;;;0.70;0.70;;;;;5.00;94898.00;;;;5095652;28;20187;-62
2023/12/05 10:47:15;;;;;;;0.53;0.53;;;;;5.40;94905.00;;;;5098829;28;20221;-62
2023/12/05 10:49:43;;;;;;;0.70;0.70;;;;;5.60;94890.00;;;;5097073;28;20230;-62
2023/12/05 10:52:12;;;;;;;0.60;0.60;;;;;5.70;94885.00;;;;5098359;28;20295;-63
2023/12/05 10:54:41;;;;;;;0.50;0.50;;;;;5.80;94901.00;;;;5098983;28;20640;-63
2023/12/05 10:57:10;;;;;;;0.73;0.73;;;;;5.60;94895.00;;;;5098635;28;20265;-62
2023/12/05 10:59:38;;;;;;;0.53;0.53;;;;;5.90;94863.00;;;;5098608;28;20268;-63
2023/12/05 11:02:13;;;;;;;0.60;0.60;;;;;7.30;94839.00;;;;5098378;28;20296;-62
2023/12/05 11:04:42;;;;;;;0.60;0.60;;;;;7.40;94835.00;;;;5098639;28;20220;-62
2023/12/05 11:07:09;;;;;;;0.70;0.70;;;;;8.80;94827.00;;;;5098527;28;20231;-63
2023/12/05 11:09:41;;;;;;;0.50;0.50;;;;;8.60;94829.00;;;;5097958;28;20714;-63
2023/12/05 11:12:10;;;;;;;0.53;0.53;;;;;9.90;94825.00;;;;5098837;28;20237;-63
2023/12/05 11:14:42;;;;;;;0.60;0.60;;;;;9.60;94827.00;;;;5097889;28;20195;-62
2023/12/05 11:17:13;;;;;;;0.40;0.40;;;;;9.40;94784.00;;;;5098474;28;20240;-62
2023/12/05 11:19:58;;;;;;;0.60;0.60;;;;;10.70;94829.00;;;;5096484;28;20205;-62
2023/12/05 11:22:35;;;;;;;1.90;0.80;;;;;11.30;94833.00;;;;5098262;28;20218;-63
2023/12/05 11:25:24;;;;;;;0.60;0.60;;;;;11.30;94823.00;;;;5097742;28;20237;-63
2023/12/05 11:28:10;;;;;;;0.50;0.50;;;;;11.00;94819.00;;;;5097761;28;20219;-63
2023/12/05 11:31:01;;;;;;;0.50;0.50;;;;;12.70;94844.00;;;;5098335;28;20279;-63
2023/12/05 11:34:06;;;;;;;0.90;0.90;;;;;11.00;94888.00;;;;5097491;28;20298;-64
2023/12/05 11:36:42;;;;;;;0.60;0.60;;;;;8.00;94791.00;;;;5098761;28;20175;-63
2023/12/05 11:39:11;;;;;;;0.57;0.57;;;;;8.80;94892.00;;;;5098456;28;20187;-63
2023/12/05 11:41:38;;;;;;;0.50;0.50;;;8.80;50.70;7.30;94895.00;;;;5097356;28;20686;-63
2023/12/05 11:44:20;;;;;;;0.60;0.60;;;;;8.00;94815.00;;;;5097112;28;20227;-63
2023/12/05 11:46:49;;;;;;;0.80;0.80;;;;;9.40;94812.00;;;;5096846;28;20190;-63
2023/12/05 11:49:36;;;;;;;0.60;0.60;;;;;12.40;94815.00;;;;5096431;28;20201;-62
2023/12/05 11:52:10;;;;;;;0.60;0.60;;;;;11.50;94830.00;;;;5096545;28;20213;-62
2023/12/05 11:54:40;;;;;;;0.50;0.50;;;;;13.40;94816.00;;;;5098011;28;20692;-62
2023/12/05 11:57:12;;;;;;;3.73;1.27;;;;;14.50;94822.00;;;;5097031;28;20706;-62
2023/12/05 11:59:41;;;;;;;0.80;0.80;;;;;11.40;94827.00;;;;5097004;28;20284;-62
2023/12/05 12:02:12;;;;;;;0.50;0.50;;;;;13.60;94813.00;;;;5095891;28;20218;-63
2023/12/05 12:04:42;;;;;;;0.60;0.60;;;;;13.80;94818.00;;;;5097860;28;20205;-64
2023/12/05 12:07:10;;;;;;;0.50;0.50;;;;;11.80;94825.00;;;;5098438;28;20353;-63
2023/12/05 12:09:38;;;;;;;2.07;0.77;;;;;12.30;94815.00;;;;5097111;28;20191;-63
2023/12/05 12:12:06;;;;;;;0.60;0.60;;;;;14.80;94816.00;;;;5096343;28;20218;-63
2023/12/05 12:14:34;;;;;;;0.70;0.70;;;;;15.70;94807.00;;;;5095939;28;20187;-63
2023/12/05 12:17:05;;;;;;;0.60;0.60;;;;;14.30;94824.00;;;;5096303;28;20195;-63
2023/12/05 12:19:37;;;;;;;1.10;0.93;;;;;13.50;94820.00;;;;5097227;28;20300;-63
2023/12/05 12:22:08;;;;;;;0.60;0.60;;;;;12.60;94869.00;;;;5096534;28;20691;-63
2023/12/05 12:24:37;;;;;;;0.87;0.87;;;;;13.10;94824.00;;;;5096702;28;20295;-64
2023/12/05 12:27:06;;;;;;;5.37;0.77;;;;;13.10;94808.00;;;;5096903;28;20624;-63
2023/12/05 12:29:35;;;;;;;0.67;0.67;;;;;15.50;94825.00;;;;5097162;28;20202;-64
2023/12/05 12:32:10;;;;;;;0.67;0.67;;;;;11.90;94822.00;;;;5095391;28;20297;-63
2023/12/05 12:34:38;;;;;;;0.57;0.57;;;;;10.80;94900.00;;;;5096601;28;20260;-63